createdAt,value
2019-01-26T00:00:42.131Z,22.63
2019-01-26T00:03:30.294Z,17.30
2019-01-26T00:06:18.427Z,20.33
2019-01-26T00:12:22.927Z,19.10
2019-01-26T00:15:11.141Z,17.47
2019-01-26T00:17:59.637Z,13.53
2019-01-26T00:20:47.782Z,17.03
2019-01-26T00:23:35.920Z,17.83
2019-01-26T00:26:24.044Z,20.67
2019-01-26T00:29:12.200Z,17.63
2019-01-26T00:32:00.316Z,14.57
2019-01-26T00:34:48.368Z,16.17
2019-01-26T00:37:36.490Z,15.70
2019-01-26T00:40:24.545Z,10.70
2019-01-26T00:43:12.586Z,18.07
2019-01-26T00:46:00.624Z,16.77
2019-01-26T00:48:41.477Z,19.43
2019-01-26T00:51:22.801Z,16.80
2019-01-26T00:54:03.952Z,18.13
2019-01-26T00:56:42.784Z,13.27
2019-01-26T00:59:30.848Z,18.40
2019-01-26T01:02:18.953Z,17.47
2019-01-26T01:05:07.265Z,19.83
2019-01-26T01:07:55.425Z,14.50
2019-01-26T01:10:43.565Z,15.57
2019-01-26T01:13:31.604Z,18.53
2019-01-26T01:16:19.693Z,16.30
2019-01-26T01:19:08.039Z,21.93
2019-01-26T01:21:56.262Z,18.47
2019-01-26T01:24:44.307Z,18.70
2019-01-26T01:27:32.889Z,22.73
2019-01-26T01:30:21.053Z,20.87
2019-01-26T01:33:09.101Z,23.53
2019-01-26T01:35:57.157Z,15.97
2019-01-26T01:38:45.505Z,21.73
2019-01-26T01:41:33.561Z,19.57
2019-01-26T01:44:21.669Z,23.73
2019-01-26T01:47:01.252Z,21.57
2019-01-26T01:49:49.392Z,22.07
2019-01-26T01:52:37.600Z,20.80
2019-01-26T01:55:25.637Z,24.97
2019-01-26T01:58:13.709Z,23.37
2019-01-26T02:01:01.861Z,26.67
2019-01-26T02:03:49.897Z,26.70
2019-01-26T02:06:38.037Z,26.13
2019-01-26T02:09:26.076Z,25.77
2019-01-26T02:12:14.217Z,30.67
2019-01-26T02:15:02.571Z,32.10
2019-01-26T02:17:50.698Z,31.83
2019-01-26T02:20:38.812Z,28.67
2019-01-26T02:23:26.921Z,27.47
2019-01-26T02:26:15.329Z,34.03
2019-01-26T02:29:03.365Z,32.53
2019-01-26T02:31:51.676Z,32.20
2019-01-26T02:34:39.742Z,28.03
2019-01-26T02:37:27.897Z,38.87
2019-01-26T02:40:16.214Z,42.43
2019-01-26T02:43:04.432Z,30.03
2019-01-26T02:45:52.555Z,25.97
2019-01-26T02:48:33.580Z,35.83
2019-01-26T02:51:12.315Z,40.43
2019-01-26T02:54:00.360Z,34.80
2019-01-26T02:56:48.691Z,35.40
2019-01-26T02:59:36.749Z,35.50
2019-01-26T03:02:24.808Z,36.43
2019-01-26T03:05:13.262Z,36.40
2019-01-26T03:08:01.316Z,32.33
2019-01-26T03:10:49.441Z,31.27
2019-01-26T03:13:37.555Z,30.17
2019-01-26T03:16:25.609Z,35.00
2019-01-26T03:19:13.717Z,28.77
2019-01-26T03:22:02.008Z,38.17
2019-01-26T03:24:50.045Z,36.77
2019-01-26T03:27:38.185Z,25.53
2019-01-26T03:30:26.307Z,28.43
2019-01-26T03:33:14.448Z,38.60
2019-01-26T03:36:02.494Z,41.97
2019-01-26T03:38:50.618Z,35.10
2019-01-26T03:41:38.721Z,31.37
2019-01-26T03:44:26.782Z,36.53
2019-01-26T03:47:05.717Z,38.40
2019-01-26T03:49:53.783Z,22.53
2019-01-26T03:52:41.818Z,29.03
2019-01-26T03:55:29.927Z,30.50
2019-01-26T03:58:18.053Z,40.43
2019-01-26T04:01:06.440Z,37.17
2019-01-26T04:03:54.501Z,28.70
2019-01-26T04:06:42.566Z,31.07
2019-01-26T04:09:30.651Z,34.40
2019-01-26T04:12:18.739Z,44.33
2019-01-26T04:15:07.824Z,34.37
2019-01-26T04:17:55.869Z,39.40
2019-01-26T04:20:44.032Z,32.17
2019-01-26T04:23:32.163Z,29.47
2019-01-26T04:26:20.285Z,29.60
2019-01-26T04:29:08.421Z,33.80
2019-01-26T04:31:56.456Z,26.77
2019-01-26T04:34:44.514Z,24.80
2019-01-26T04:37:32.625Z,25.60
2019-01-26T04:40:20.753Z,28.97
2019-01-26T04:43:08.791Z,29.53
2019-01-26T04:45:56.867Z,27.07
2019-01-26T04:48:37.325Z,27.33
2019-01-26T04:51:16.106Z,19.40
2019-01-26T04:54:04.229Z,23.13
2019-01-26T04:56:52.366Z,27.27
2019-01-26T04:59:40.412Z,25.70
2019-01-26T05:02:28.627Z,34.03
2019-01-26T05:05:37.328Z,33.03
2019-01-26T05:08:25.464Z,31.90
2019-01-26T05:11:13.518Z,26.10
2019-01-26T05:14:01.568Z,26.27
2019-01-26T05:16:50.011Z,25.10
2019-01-26T05:19:38.077Z,20.60
2019-01-26T05:22:26.178Z,25.53
2019-01-26T05:25:14.425Z,25.67
2019-01-26T05:28:02.484Z,25.00
2019-01-26T05:30:50.621Z,24.63
2019-01-26T05:33:38.650Z,24.40
2019-01-26T05:36:26.708Z,23.57
2019-01-26T05:39:14.760Z,33.93
2019-01-26T05:42:02.869Z,20.87
2019-01-26T05:44:51.001Z,24.63
2019-01-26T05:47:29.517Z,12.83
2019-01-26T05:50:18.436Z,27.23
2019-01-26T05:52:47.424Z,15.60
2019-01-26T05:55:35.467Z,28.07
2019-01-26T05:58:23.757Z,23.47
2019-01-26T06:01:12.114Z,24.80
2019-01-26T06:04:00.145Z,18.77
2019-01-26T06:06:48.430Z,26.03
2019-01-26T06:09:36.741Z,24.50
2019-01-26T06:12:25.090Z,24.70
2019-01-26T06:15:13.215Z,25.40
2019-01-26T06:17:42.426Z,22.87
2019-01-26T06:20:30.546Z,18.73
2019-01-26T06:23:18.576Z,28.03
2019-01-26T06:26:06.969Z,28.40
2019-01-26T06:28:54.997Z,27.70
2019-01-26T06:31:43.122Z,29.87
2019-01-26T06:34:31.221Z,24.03
2019-01-26T06:37:19.345Z,19.60
2019-01-26T06:40:08.412Z,18.77
2019-01-26T06:42:56.452Z,21.40
2019-01-26T06:45:44.576Z,22.90
2019-01-26T06:48:23.449Z,21.97
2019-01-26T06:51:11.505Z,22.17
2019-01-26T06:53:59.533Z,25.00
2019-01-26T06:56:47.605Z,28.27
2019-01-26T06:59:35.641Z,28.20
2019-01-26T07:02:23.697Z,22.97
2019-01-26T07:05:30.870Z,26.10
2019-01-26T07:08:20.605Z,30.97
2019-01-26T07:11:08.650Z,25.97
2019-01-26T07:13:56.772Z,25.43
2019-01-26T07:16:44.901Z,25.23
2019-01-26T07:19:33.121Z,24.20
2019-01-26T07:25:19.674Z,20.10
2019-01-26T07:28:08.040Z,24.40
2019-01-26T07:30:56.077Z,21.37
2019-01-26T07:33:44.188Z,28.43
2019-01-26T07:36:32.229Z,24.67
2019-01-26T07:39:20.332Z,26.17
2019-01-26T07:42:08.380Z,22.87
2019-01-26T07:44:56.497Z,24.53
2019-01-26T07:47:35.521Z,27.20
2019-01-26T07:50:23.974Z,20.93
2019-01-26T07:53:12.024Z,22.10
2019-01-26T07:56:19.257Z,24.77
2019-01-26T07:59:07.375Z,22.40
2019-01-26T08:01:55.494Z,21.53
2019-01-26T08:04:43.605Z,32.17
2019-01-26T08:07:31.716Z,25.97
2019-01-26T08:10:20.868Z,22.97
2019-01-26T08:13:09.093Z,22.27
2019-01-26T08:15:57.126Z,24.23
2019-01-26T08:18:45.173Z,26.00
2019-01-26T08:25:01.202Z,22.23
2019-01-26T08:27:49.316Z,24.77
2019-01-26T08:30:37.433Z,24.23
2019-01-26T08:33:25.481Z,23.47
2019-01-26T08:36:13.585Z,20.90
2019-01-26T08:39:01.865Z,26.57
2019-01-26T08:41:49.911Z,24.63
2019-01-26T08:44:37.961Z,22.00
2019-01-26T08:47:19.058Z,30.50
2019-01-26T08:49:59.718Z,25.87
2019-01-26T08:52:41.289Z,23.77
2019-01-26T08:55:20.365Z,30.73
2019-01-26T08:58:08.484Z,27.90
2019-01-26T09:00:56.595Z,30.13
2019-01-26T09:04:03.770Z,27.87
2019-01-26T09:06:55.065Z,28.10
2019-01-26T09:09:43.109Z,29.00
2019-01-26T09:12:31.136Z,25.97
2019-01-26T09:15:19.248Z,24.47
2019-01-26T09:20:55.692Z,24.07
2019-01-26T09:23:43.766Z,28.97
2019-01-26T09:26:31.806Z,23.03
2019-01-26T09:29:19.932Z,21.93
2019-01-26T09:32:08.033Z,20.90
2019-01-26T09:34:56.076Z,21.30
2019-01-26T09:37:44.178Z,24.37
2019-01-26T09:40:32.294Z,21.17
2019-01-26T09:43:20.334Z,33.23
2019-01-26T09:46:08.464Z,19.07
2019-01-26T09:48:56.518Z,24.70
2019-01-26T09:51:44.641Z,28.13
2019-01-26T09:54:32.697Z,24.70
2019-01-26T09:57:20.721Z,22.93
2019-01-26T10:00:11.223Z,22.17
2019-01-26T10:02:59.321Z,23.50
2019-01-26T10:05:47.352Z,23.40
2019-01-26T10:08:35.694Z,26.40
2019-01-26T10:11:23.861Z,27.80
2019-01-26T10:14:11.968Z,24.97
2019-01-26T10:16:40.893Z,23.90
2019-01-26T10:19:35.662Z,20.77
2019-01-26T10:22:23.699Z,22.90
2019-01-26T10:25:11.890Z,23.57
2019-01-26T10:28:20.510Z,23.30
2019-01-26T10:31:08.549Z,24.17
2019-01-26T10:33:56.578Z,20.27
2019-01-26T10:37:03.669Z,20.07
2019-01-26T10:42:46.778Z,19.30
2019-01-26T10:45:34.965Z,18.03
2019-01-26T10:48:15.668Z,17.83
2019-01-26T10:50:56.317Z,20.73
2019-01-26T10:53:25.140Z,21.73
2019-01-26T10:56:13.250Z,18.83
2019-01-26T10:59:01.359Z,19.43
2019-01-26T11:01:49.485Z,19.00
2019-01-26T11:04:37.826Z,16.77
2019-01-26T11:07:25.873Z,19.60
2019-01-26T11:10:14.081Z,19.43
2019-01-26T11:13:02.333Z,20.55
2019-01-26T11:15:50.381Z,21.80
2019-01-26T11:18:38.723Z,14.93
2019-01-26T11:21:26.834Z,18.97
2019-01-26T11:24:14.853Z,16.43
2019-01-26T11:27:03.050Z,18.60
2019-01-26T11:29:51.140Z,22.10
2019-01-26T11:32:39.184Z,17.00
2019-01-26T11:35:27.285Z,16.63
2019-01-26T11:38:15.324Z,17.17
2019-01-26T11:41:03.428Z,14.27
2019-01-26T11:43:51.529Z,12.50
2019-01-26T11:46:50.918Z,15.50
2019-01-26T11:49:32.223Z,14.77
2019-01-26T11:52:12.765Z,16.60
2019-01-26T11:57:28.238Z,13.67
2019-01-26T12:00:39.288Z,13.37
2019-01-26T12:06:49.137Z,14.57
2019-01-26T12:09:37.427Z,9.87
2019-01-26T12:12:25.537Z,14.87
2019-01-26T12:15:14.377Z,14.20
2019-01-26T12:18:02.488Z,15.13
2019-01-26T12:20:50.586Z,19.77
2019-01-26T12:23:38.873Z,15.87
2019-01-26T12:26:26.967Z,17.10
2019-01-26T12:29:15.258Z,11.03
2019-01-26T12:32:03.366Z,12.80
2019-01-26T12:34:51.708Z,16.03
2019-01-26T12:37:39.808Z,14.60
2019-01-26T12:40:27.928Z,13.47
2019-01-26T12:43:15.979Z,15.90
2019-01-26T12:46:04.080Z,12.50
2019-01-26T12:48:45.377Z,14.53
2019-01-26T12:51:26.586Z,11.67
2019-01-26T12:54:07.117Z,14.13
2019-01-26T12:56:45.782Z,13.93
2019-01-26T12:59:34.200Z,17.57
2019-01-26T13:02:22.297Z,14.50
2019-01-26T13:05:10.410Z,14.20
2019-01-26T13:07:58.517Z,15.17
2019-01-26T13:10:48.025Z,9.97
2019-01-26T13:13:36.061Z,13.43
2019-01-26T13:16:24.221Z,15.90
2019-01-26T13:19:12.341Z,13.77
2019-01-26T13:22:00.368Z,15.57
2019-01-26T13:24:48.478Z,13.47
2019-01-26T13:27:36.573Z,12.07
2019-01-26T13:30:24.695Z,13.50
2019-01-26T13:33:12.788Z,15.03
2019-01-26T13:36:01.124Z,14.83
2019-01-26T13:38:49.220Z,9.97
2019-01-26T13:41:37.818Z,12.50
2019-01-26T13:44:26.191Z,13.20
2019-01-26T13:47:08.808Z,15.83
2019-01-26T13:49:49.338Z,13.57
2019-01-26T13:52:28.012Z,11.73
2019-01-26T13:55:17.105Z,13.83
2019-01-26T13:58:05.353Z,13.43
2019-01-26T14:00:53.405Z,10.83
2019-01-26T14:03:41.429Z,11.90
2019-01-26T14:06:29.461Z,11.47
2019-01-26T14:09:17.500Z,12.00
2019-01-26T14:12:05.601Z,12.20
2019-01-26T14:14:53.637Z,14.07
2019-01-26T14:17:41.741Z,12.33
2019-01-26T14:20:29.857Z,9.60
2019-01-26T14:23:18.085Z,14.43
2019-01-26T14:26:06.193Z,12.60
2019-01-26T14:28:54.226Z,11.23
2019-01-26T14:31:42.265Z,13.83
2019-01-26T14:34:30.401Z,10.10
2019-01-26T14:40:29.638Z,11.03
2019-01-26T14:43:17.660Z,9.83
2019-01-26T14:46:05.780Z,13.37
2019-01-26T14:48:46.928Z,10.63
2019-01-26T14:51:27.445Z,12.83
2019-01-26T14:54:08.445Z,8.50
2019-01-26T14:56:48.929Z,12.80
2019-01-26T14:59:27.557Z,9.60
2019-01-26T15:02:15.597Z,8.77
2019-01-26T15:05:24.218Z,10.93
2019-01-26T15:08:12.308Z,9.70
2019-01-26T15:11:00.354Z,9.93
2019-01-26T15:13:48.466Z,13.73
2019-01-26T15:16:36.504Z,9.77
2019-01-26T15:19:24.604Z,11.20
2019-01-26T15:22:12.639Z,9.97
2019-01-26T15:25:00.692Z,11.57
2019-01-26T15:30:38.300Z,11.03
2019-01-26T15:33:26.404Z,10.57
2019-01-26T15:36:14.522Z,10.33
2019-01-26T15:39:03.656Z,10.13
2019-01-26T15:41:52.473Z,10.37
2019-01-26T15:44:40.496Z,8.60
2019-01-26T15:47:19.413Z,10.50
2019-01-26T15:50:13.033Z,9.87
2019-01-26T15:52:57.695Z,12.33
2019-01-26T15:55:46.045Z,10.57
2019-01-26T15:58:34.149Z,13.70
2019-01-26T16:01:22.185Z,10.07
2019-01-26T16:04:10.532Z,10.97
2019-01-26T16:06:58.642Z,10.73
2019-01-26T16:09:46.669Z,10.50
2019-01-26T16:12:34.954Z,7.50
2019-01-26T16:15:24.328Z,10.60
2019-01-26T16:18:13.597Z,11.97
2019-01-26T16:21:01.714Z,8.93
2019-01-26T16:23:49.732Z,10.87
2019-01-26T16:26:37.773Z,9.07
2019-01-26T16:29:25.794Z,9.37
2019-01-26T16:32:14.792Z,7.67
2019-01-26T16:34:46.573Z,10.77
2019-01-26T16:37:34.802Z,7.50
2019-01-26T16:40:24.518Z,11.77
2019-01-26T16:43:12.785Z,9.73
2019-01-26T16:46:01.069Z,9.37
2019-01-26T16:48:42.141Z,13.10
2019-01-26T16:51:22.966Z,8.97
2019-01-26T16:54:03.658Z,9.10
2019-01-26T16:56:44.261Z,11.17
2019-01-26T16:59:24.841Z,11.07
2019-01-26T17:02:05.746Z,9.30
2019-01-26T17:04:46.733Z,8.33
2019-01-26T17:07:25.432Z,11.87
2019-01-26T17:10:14.533Z,13.33
2019-01-26T17:13:02.653Z,10.23
2019-01-26T17:15:50.752Z,8.07
2019-01-26T17:18:39.037Z,8.53
2019-01-26T17:21:27.330Z,10.37
2019-01-26T17:24:15.354Z,10.13
2019-01-26T17:27:03.700Z,7.23
2019-01-26T17:29:52.024Z,10.90
2019-01-26T17:32:40.314Z,12.13
2019-01-26T17:35:28.412Z,15.20
2019-01-26T17:38:16.460Z,11.93
2019-01-26T17:41:04.557Z,8.30
2019-01-26T17:43:52.596Z,9.30
2019-01-26T17:46:40.193Z,9.70
2019-01-26T17:52:40.156Z,11.33
2019-01-26T17:55:14.449Z,10.43
2019-01-26T17:58:02.761Z,12.63
2019-01-26T18:01:09.912Z,9.33
2019-01-26T18:03:58.024Z,14.77
2019-01-26T18:06:46.073Z,10.77
2019-01-26T18:09:34.168Z,8.97
2019-01-26T18:12:22.281Z,7.90
2019-01-26T18:15:10.999Z,28.77
2019-01-26T18:17:59.345Z,11.97
2019-01-26T18:20:49.413Z,7.90
2019-01-26T18:23:37.448Z,8.73
2019-01-26T18:26:25.793Z,28.03
2019-01-26T18:29:13.841Z,34.77
2019-01-26T18:32:01.917Z,12.40
2019-01-26T18:34:50.012Z,13.57
2019-01-26T18:37:38.374Z,11.77
2019-01-26T18:40:26.467Z,8.23
2019-01-26T18:43:14.589Z,10.40
2019-01-26T18:46:02.788Z,11.87
2019-01-26T18:48:44.390Z,10.27
2019-01-26T18:51:23.369Z,12.73
2019-01-26T18:54:11.729Z,33.57
2019-01-26T18:56:59.753Z,29.47
2019-01-26T18:59:48.045Z,10.57
2019-01-26T19:02:36.168Z,12.27
2019-01-26T19:05:24.200Z,16.83
2019-01-26T19:08:12.445Z,143.87
2019-01-26T19:11:00.540Z,39.27
2019-01-26T19:13:48.813Z,14.13
2019-01-26T19:16:36.917Z,10.00
2019-01-26T19:19:24.964Z,10.63
2019-01-26T19:22:13.061Z,10.73
2019-01-26T19:25:01.409Z,9.67
2019-01-26T19:27:49.529Z,11.10
2019-01-26T19:30:37.624Z,12.33
2019-01-26T19:33:25.734Z,7.63
2019-01-26T19:36:13.833Z,12.20
2019-01-26T19:39:01.957Z,10.93
2019-01-26T19:41:50.056Z,9.07
2019-01-26T19:44:38.332Z,10.67
2019-01-26T19:47:18.901Z,10.03
2019-01-26T19:49:59.576Z,35.87
2019-01-26T19:55:21.574Z,10.53
2019-01-26T19:58:00.807Z,9.30
2019-01-26T20:00:48.889Z,9.83
2019-01-26T20:03:37.000Z,11.40
2019-01-26T20:06:25.110Z,16.87
2019-01-26T20:09:13.742Z,11.63
2019-01-26T20:12:01.836Z,12.33
2019-01-26T20:14:50.183Z,11.10
2019-01-26T20:17:38.401Z,13.40
2019-01-26T20:20:27.769Z,10.90
2019-01-26T20:23:15.800Z,10.43
2019-01-26T20:26:04.417Z,9.30
2019-01-26T20:28:52.456Z,11.40
2019-01-26T20:31:40.567Z,9.23
2019-01-26T20:34:28.662Z,9.50
2019-01-26T20:37:16.688Z,11.03
2019-01-26T20:40:05.315Z,9.37
2019-01-26T20:42:53.437Z,9.00
2019-01-26T20:45:41.562Z,8.13
2019-01-26T20:48:22.018Z,10.20
2019-01-26T20:51:02.409Z,19.90
2019-01-26T20:53:41.301Z,10.80
2019-01-26T20:56:29.409Z,10.87
2019-01-26T20:59:17.762Z,10.83
2019-01-26T21:02:05.867Z,11.33
2019-01-26T21:04:54.169Z,9.87
2019-01-26T21:07:42.290Z,10.97
2019-01-26T21:10:30.402Z,10.20
2019-01-26T21:13:18.497Z,8.63
2019-01-26T21:16:06.627Z,10.73
2019-01-26T21:18:54.656Z,8.37
2019-01-26T21:21:42.946Z,9.07
2019-01-26T21:24:31.058Z,8.30
2019-01-26T21:27:19.081Z,10.07
2019-01-26T21:30:09.236Z,11.93
2019-01-26T21:32:57.652Z,10.47
2019-01-26T21:35:45.752Z,11.10
2019-01-26T21:38:33.772Z,8.97
2019-01-26T21:41:22.125Z,8.57
2019-01-26T21:44:10.544Z,8.17
2019-01-26T21:46:58.600Z,9.97
2019-01-26T21:49:37.361Z,10.03
2019-01-26T21:52:25.629Z,8.30
2019-01-26T21:55:13.745Z,10.70
2019-01-26T21:58:02.070Z,14.07
2019-01-26T22:00:50.429Z,9.13
2019-01-26T22:03:38.520Z,9.57
2019-01-26T22:06:26.793Z,10.70
2019-01-26T22:09:14.822Z,9.93
2019-01-26T22:12:02.877Z,9.37
2019-01-26T22:14:50.897Z,8.50
2019-01-26T22:17:39.013Z,9.70
2019-01-26T22:20:27.619Z,13.23
2019-01-26T22:23:15.649Z,10.57
2019-01-26T22:26:03.764Z,9.53
2019-01-26T22:28:51.773Z,12.03
2019-01-26T22:31:39.813Z,9.27
2019-01-26T22:34:27.870Z,9.90
2019-01-26T22:37:15.889Z,8.77
2019-01-26T22:40:04.911Z,9.00
2019-01-26T22:42:52.955Z,10.93
2019-01-26T22:45:40.993Z,10.77
2019-01-26T22:48:21.962Z,8.13
2019-01-26T22:51:02.760Z,10.30
2019-01-26T22:53:44.686Z,9.20
2019-01-26T22:56:25.654Z,10.93
2019-01-26T23:01:55.793Z,9.10
2019-01-26T23:04:36.634Z,8.60
2019-01-26T23:07:17.314Z,7.03
2019-01-26T23:09:58.110Z,10.03
2019-01-26T23:12:39.096Z,7.60
2019-01-26T23:15:20.066Z,7.70
2019-01-26T23:18:00.425Z,9.23
2019-01-26T23:20:40.933Z,8.00
2019-01-26T23:23:21.517Z,11.20
2019-01-26T23:26:02.337Z,10.27
2019-01-26T23:28:43.434Z,10.77
2019-01-26T23:31:24.301Z,10.03
2019-01-26T23:34:05.258Z,9.37
2019-01-26T23:36:45.934Z,8.60
2019-01-26T23:39:26.697Z,9.00
2019-01-26T23:42:07.258Z,10.20
2019-01-26T23:44:47.859Z,7.20
2019-01-26T23:47:28.566Z,10.77
2019-01-26T23:50:09.298Z,10.67
2019-01-26T23:52:50.197Z,10.53
2019-01-26T23:55:30.813Z,8.63
2019-01-26T23:58:11.330Z,9.03
